ARE9466 SKRG-SKCG
Flight info
| Callsign | ARE9466 |
|---|---|
| Flight time | 0h 49m |
| Altitude | 35000 |
| Route | BUTAL3A BUTAL DCT AKPAM AKPAM2A |
| Aircraft | A319/M-SDE3FGHIRWY/LB1 |
Departure
| Time | 2026-04-30 21:13 |
|---|---|
| Airport | Jose Maria Córdova International Airport (SKRG) |
Arrival
| Time | 2026-04-30 22:02 |
|---|---|
| Airport | Rafael Nuñez International Airport (SKCG) |
| Time | Latitude | Longitude | Altitude | Speed | Heading |
|---|---|---|---|---|---|
| 2026-04-30 20:12 | 6.16943 | -75.42876 | 7017 ft | 0 kts | 346° |
| 2026-04-30 21:01 | 6.16938 | -75.42876 | 7017 ft | 2 kts | 346° |
| 2026-04-30 21:01 | 6.16923 | -75.42872 | 7017 ft | 2 kts | 346° |
| 2026-04-30 21:01 | 6.16897 | -75.42865 | 7017 ft | 1 kts | 353° |
| 2026-04-30 21:02 | 6.16890 | -75.42867 | 7017 ft | 1 kts | 59° |
| 2026-04-30 21:02 | 6.16889 | -75.42873 | 7017 ft | 1 kts | 83° |
| 2026-04-30 21:02 | 6.16888 | -75.42876 | 7017 ft | 0 kts | 76° |
| 2026-04-30 21:04 | 6.16901 | -75.42749 | 7017 ft | 12 kts | 114° |
| 2026-04-30 21:05 | 6.16930 | -75.42668 | 7017 ft | 16 kts | 45° |
| 2026-04-30 21:05 | 6.17008 | -75.42602 | 7017 ft | 11 kts | 73° |
| 2026-04-30 21:05 | 6.16963 | -75.42549 | 7017 ft | 9 kts | 152° |
| 2026-04-30 21:05 | 6.16908 | -75.42519 | 7017 ft | 8 kts | 150° |
| 2026-04-30 21:06 | 6.16861 | -75.42493 | 7017 ft | 6 kts | 157° |
| 2026-04-30 21:06 | 6.16805 | -75.42487 | 7017 ft | 10 kts | 181° |
| 2026-04-30 21:06 | 6.16723 | -75.42487 | 7017 ft | 13 kts | 179° |
| 2026-04-30 21:06 | 6.16617 | -75.42487 | 7017 ft | 16 kts | 179° |
| 2026-04-30 21:07 | 6.16506 | -75.42485 | 7016 ft | 14 kts | 179° |
| 2026-04-30 21:07 | 6.16413 | -75.42484 | 7016 ft | 11 kts | 180° |
| 2026-04-30 21:07 | 6.16337 | -75.42484 | 7016 ft | 10 kts | 180° |
| 2026-04-30 21:07 | 6.16251 | -75.42485 | 7016 ft | 13 kts | 181° |
| 2026-04-30 21:08 | 6.16146 | -75.42483 | 7016 ft | 16 kts | 179° |
| 2026-04-30 21:08 | 6.16025 | -75.42481 | 7016 ft | 18 kts | 180° |
| 2026-04-30 21:08 | 6.15890 | -75.42481 | 7016 ft | 20 kts | 180° |
| 2026-04-30 21:08 | 6.15745 | -75.42479 | 7016 ft | 21 kts | 181° |
| 2026-04-30 21:09 | 6.15589 | -75.42479 | 7015 ft | 22 kts | 179° |
| 2026-04-30 21:09 | 6.15432 | -75.42477 | 7015 ft | 20 kts | 179° |
| 2026-04-30 21:09 | 6.15298 | -75.42476 | 7015 ft | 17 kts | 180° |
| 2026-04-30 21:09 | 6.15186 | -75.42476 | 7015 ft | 14 kts | 180° |
| 2026-04-30 21:10 | 6.15093 | -75.42476 | 7015 ft | 11 kts | 180° |
| 2026-04-30 21:10 | 6.15017 | -75.42476 | 7015 ft | 9 kts | 179° |
| 2026-04-30 21:10 | 6.14956 | -75.42474 | 7015 ft | 7 kts | 182° |
| 2026-04-30 21:10 | 6.14908 | -75.42476 | 7015 ft | 6 kts | 181° |
| 2026-04-30 21:11 | 6.14875 | -75.42451 | 7015 ft | 6 kts | 110° |
| 2026-04-30 21:11 | 6.14871 | -75.42404 | 7015 ft | 7 kts | 91° |
| 2026-04-30 21:11 | 6.14879 | -75.42354 | 7015 ft | 7 kts | 65° |
| 2026-04-30 21:11 | 6.14915 | -75.42314 | 7015 ft | 7 kts | 36° |
| 2026-04-30 21:12 | 6.14966 | -75.42303 | 7015 ft | 0 kts | 359° |
| 2026-04-30 21:12 | 6.14978 | -75.42304 | 7015 ft | 12 kts | 359° |
| 2026-04-30 21:12 | 6.15317 | -75.42308 | 7015 ft | 83 kts | 1° |
| 2026-04-30 21:12 | 6.16127 | -75.42313 | 7017 ft | 145 kts | 359° |
| 2026-04-30 21:13 | 6.17311 | -75.42317 | 7179 ft | 182 kts | 359° |
| 2026-04-30 21:13 | 6.18595 | -75.42320 | 7888 ft | 179 kts | 0° |
| 2026-04-30 21:13 | 6.19841 | -75.42323 | 8444 ft | 173 kts | 0° |
| 2026-04-30 21:13 | 6.21096 | -75.42326 | 8749 ft | 178 kts | 1° |
| 2026-04-30 21:14 | 6.22384 | -75.42328 | 8975 ft | 189 kts | 1° |
| 2026-04-30 21:14 | 6.23743 | -75.42330 | 9203 ft | 201 kts | 1° |
| 2026-04-30 21:14 | 6.25201 | -75.42334 | 9451 ft | 214 kts | 1° |
| 2026-04-30 21:14 | 6.26744 | -75.42340 | 9698 ft | 227 kts | 1° |
| 2026-04-30 21:15 | 6.28428 | -75.42344 | 9888 ft | 246 kts | 2° |
| 2026-04-30 21:15 | 6.30221 | -75.42346 | 10196 ft | 262 kts | 2° |
| 2026-04-30 21:15 | 6.32105 | -75.42356 | 10483 ft | 278 kts | 1° |
| 2026-04-30 21:15 | 6.34111 | -75.42364 | 10782 ft | 295 kts | 2° |
| 2026-04-30 21:16 | 6.36251 | -75.42345 | 11150 ft | 311 kts | 2° |
| 2026-04-30 21:16 | 6.38434 | -75.42322 | 11692 ft | 318 kts | 2° |
| 2026-04-30 21:16 | 6.40686 | -75.42297 | 12365 ft | 321 kts | 2° |
| 2026-04-30 21:16 | 6.42966 | -75.42275 | 13033 ft | 323 kts | 2° |
| 2026-04-30 21:17 | 6.45247 | -75.42295 | 13689 ft | 327 kts | 1° |
| 2026-04-30 21:17 | 6.47548 | -75.42348 | 14344 ft | 330 kts | 0° |
| 2026-04-30 21:17 | 6.49901 | -75.42406 | 14965 ft | 334 kts | 0° |
| 2026-04-30 21:17 | 6.52365 | -75.42469 | 15585 ft | 338 kts | 0° |
| 2026-04-30 21:18 | 6.54873 | -75.42532 | 16229 ft | 341 kts | 0° |
| 2026-04-30 21:18 | 6.57394 | -75.42594 | 16852 ft | 345 kts | 0° |
| 2026-04-30 21:18 | 6.59957 | -75.42656 | 17469 ft | 348 kts | 1° |
| 2026-04-30 21:18 | 6.62510 | -75.42717 | 18084 ft | 351 kts | 1° |
| 2026-04-30 21:19 | 6.65105 | -75.42778 | 18677 ft | 354 kts | 0° |
| 2026-04-30 21:19 | 6.67745 | -75.42841 | 19263 ft | 357 kts | 0° |
| 2026-04-30 21:19 | 6.70384 | -75.42902 | 19826 ft | 360 kts | 0° |
| 2026-04-30 21:19 | 6.73036 | -75.42966 | 20383 ft | 363 kts | 0° |
| 2026-04-30 21:20 | 6.75741 | -75.43030 | 20933 ft | 366 kts | 0° |
| 2026-04-30 21:20 | 6.78472 | -75.43094 | 21465 ft | 370 kts | 0° |
| 2026-04-30 21:20 | 6.81221 | -75.43160 | 21992 ft | 372 kts | 0° |
| 2026-04-30 21:20 | 6.83985 | -75.43225 | 22500 ft | 375 kts | 360° |
| 2026-04-30 21:21 | 6.86814 | -75.43291 | 23015 ft | 378 kts | 360° |
| 2026-04-30 21:21 | 6.89630 | -75.43357 | 23522 ft | 381 kts | 359° |
| 2026-04-30 21:21 | 6.95251 | -75.43491 | 24150 ft | 386 kts | 359° |
| 2026-04-30 21:22 | 6.97970 | -75.43557 | 24148 ft | 386 kts | 359° |
| 2026-04-30 21:22 | 7.06091 | -75.43754 | 24114 ft | 385 kts | 359° |
| 2026-04-30 21:23 | 7.08786 | -75.43819 | 24100 ft | 386 kts | 359° |
| 2026-04-30 21:23 | 7.11499 | -75.43883 | 24081 ft | 385 kts | 359° |
| 2026-04-30 21:23 | 7.16977 | -75.44014 | 24054 ft | 385 kts | 359° |
| 2026-04-30 21:24 | 7.19697 | -75.44080 | 24028 ft | 385 kts | 359° |
| 2026-04-30 21:24 | 7.22388 | -75.44144 | 23997 ft | 385 kts | 359° |
| 2026-04-30 21:24 | 7.25093 | -75.44209 | 23975 ft | 386 kts | 359° |
| 2026-04-30 21:24 | 7.27774 | -75.44273 | 23954 ft | 386 kts | 359° |
| 2026-04-30 21:25 | 7.33199 | -75.44403 | 23918 ft | 385 kts | 359° |
| 2026-04-30 21:25 | 7.35918 | -75.44469 | 23903 ft | 386 kts | 359° |
| 2026-04-30 21:25 | 7.38596 | -75.44533 | 23890 ft | 386 kts | 359° |
| 2026-04-30 21:26 | 7.44115 | -75.44665 | 23863 ft | 386 kts | 359° |
| 2026-04-30 21:26 | 7.46809 | -75.44730 | 23844 ft | 386 kts | 359° |
| 2026-04-30 21:27 | 7.51865 | -75.44852 | 23822 ft | 386 kts | 359° |
| 2026-04-30 21:27 | 7.54566 | -75.44916 | 23813 ft | 386 kts | 359° |
| 2026-04-30 21:27 | 7.57236 | -75.44981 | 23804 ft | 386 kts | 359° |
| 2026-04-30 21:28 | 7.62641 | -75.45113 | 23785 ft | 386 kts | 359° |
| 2026-04-30 21:28 | 7.65346 | -75.45177 | 23778 ft | 386 kts | 359° |
| 2026-04-30 21:28 | 7.70746 | -75.45310 | 23763 ft | 386 kts | 359° |
| 2026-04-30 21:29 | 7.73427 | -75.45376 | 23769 ft | 385 kts | 359° |
| 2026-04-30 21:29 | 7.81526 | -75.45577 | 23748 ft | 386 kts | 359° |
| 2026-04-30 21:30 | 7.87101 | -75.45705 | 23728 ft | 384 kts | 360° |
| 2026-04-30 21:31 | 7.95481 | -75.45863 | 22423 ft | 378 kts | 360° |
| 2026-04-30 21:31 | 8.01047 | -75.45975 | 21543 ft | 372 kts | 359° |
| 2026-04-30 21:32 | 8.06475 | -75.46087 | 20692 ft | 367 kts | 360° |
| 2026-04-30 21:32 | 8.09194 | -75.46142 | 20281 ft | 364 kts | 360° |
| 2026-04-30 21:32 | 8.11823 | -75.46197 | 19874 ft | 362 kts | 360° |
| 2026-04-30 21:32 | 8.14466 | -75.46252 | 19461 ft | 359 kts | 360° |
| 2026-04-30 21:33 | 8.17130 | -75.46308 | 19046 ft | 357 kts | 360° |
| 2026-04-30 21:33 | 8.22339 | -75.46416 | 18268 ft | 351 kts | 359° |
| 2026-04-30 21:33 | 8.24932 | -75.46470 | 17866 ft | 349 kts | 359° |
| 2026-04-30 21:34 | 8.27517 | -75.46524 | 17455 ft | 347 kts | 359° |
| 2026-04-30 21:34 | 8.32563 | -75.46629 | 16670 ft | 342 kts | 359° |
| 2026-04-30 21:34 | 8.34973 | -75.46680 | 16289 ft | 341 kts | 359° |
| 2026-04-30 21:35 | 8.37338 | -75.46730 | 15909 ft | 339 kts | 360° |
| 2026-04-30 21:35 | 8.39713 | -75.46779 | 15530 ft | 337 kts | 359° |
| 2026-04-30 21:35 | 8.42034 | -75.46827 | 15166 ft | 335 kts | 360° |
| 2026-04-30 21:35 | 8.44390 | -75.46877 | 14790 ft | 334 kts | 359° |
| 2026-04-30 21:36 | 8.46714 | -75.46925 | 14420 ft | 332 kts | 360° |
| 2026-04-30 21:36 | 8.49031 | -75.46974 | 14056 ft | 330 kts | 360° |
| 2026-04-30 21:37 | 8.55957 | -75.47118 | 12942 ft | 326 kts | 360° |
| 2026-04-30 21:37 | 8.58350 | -75.47169 | 12559 ft | 324 kts | 360° |
| 2026-04-30 21:37 | 8.60750 | -75.47218 | 12195 ft | 322 kts | 360° |
| 2026-04-30 21:37 | 8.63149 | -75.47268 | 11835 ft | 320 kts | 360° |
| 2026-04-30 21:38 | 8.65532 | -75.47318 | 11461 ft | 318 kts | 360° |
| 2026-04-30 21:38 | 8.67854 | -75.47367 | 11096 ft | 316 kts | 360° |
| 2026-04-30 21:38 | 8.70194 | -75.47417 | 10716 ft | 314 kts | 360° |
| 2026-04-30 21:38 | 8.72540 | -75.47466 | 10482 ft | 306 kts | 360° |
| 2026-04-30 21:39 | 8.74804 | -75.47514 | 10228 ft | 301 kts | 360° |
| 2026-04-30 21:39 | 8.77029 | -75.47561 | 9880 ft | 299 kts | 360° |
| 2026-04-30 21:39 | 8.79202 | -75.47607 | 9538 ft | 297 kts | 360° |
| 2026-04-30 21:39 | 8.81384 | -75.47652 | 9198 ft | 295 kts | 360° |
| 2026-04-30 21:40 | 8.83560 | -75.47698 | 8870 ft | 293 kts | 360° |
| 2026-04-30 21:40 | 8.85683 | -75.47742 | 8539 ft | 291 kts | 0° |
| 2026-04-30 21:40 | 8.87774 | -75.47786 | 8222 ft | 288 kts | 360° |
| 2026-04-30 21:40 | 8.89883 | -75.47830 | 7888 ft | 286 kts | 360° |
| 2026-04-30 21:41 | 8.91962 | -75.47874 | 7561 ft | 284 kts | 0° |
| 2026-04-30 21:41 | 8.94034 | -75.47916 | 7230 ft | 282 kts | 0° |
| 2026-04-30 21:41 | 8.96118 | -75.47961 | 6912 ft | 279 kts | 0° |
| 2026-04-30 21:41 | 8.98182 | -75.48003 | 6603 ft | 277 kts | 0° |
| 2026-04-30 21:42 | 9.00234 | -75.48047 | 6287 ft | 275 kts | 0° |
| 2026-04-30 21:42 | 9.02241 | -75.48088 | 5992 ft | 272 kts | 0° |
| 2026-04-30 21:42 | 9.04162 | -75.48129 | 5973 ft | 272 kts | 0° |
| 2026-04-30 21:42 | 9.06060 | -75.48168 | 5969 ft | 272 kts | 0° |
| 2026-04-30 21:43 | 9.08021 | -75.48209 | 5969 ft | 273 kts | 0° |
| 2026-04-30 21:43 | 9.09975 | -75.48250 | 5963 ft | 272 kts | 0° |
| 2026-04-30 21:43 | 9.11888 | -75.48289 | 5967 ft | 272 kts | 0° |
| 2026-04-30 21:43 | 9.13827 | -75.48331 | 5972 ft | 272 kts | 0° |
| 2026-04-30 21:44 | 9.15726 | -75.48370 | 5973 ft | 272 kts | 0° |
| 2026-04-30 21:44 | 9.17638 | -75.48411 | 5971 ft | 273 kts | 0° |
| 2026-04-30 21:44 | 9.19566 | -75.48450 | 5975 ft | 273 kts | 0° |
| 2026-04-30 21:44 | 9.21515 | -75.48492 | 5978 ft | 273 kts | 0° |
| 2026-04-30 21:45 | 9.23434 | -75.48534 | 5981 ft | 273 kts | 0° |
| 2026-04-30 21:45 | 9.25362 | -75.48573 | 5980 ft | 273 kts | 0° |
| 2026-04-30 21:45 | 9.27252 | -75.48613 | 5976 ft | 273 kts | 0° |
| 2026-04-30 21:45 | 9.29185 | -75.48654 | 5974 ft | 273 kts | 1° |
| 2026-04-30 21:46 | 9.31084 | -75.48695 | 5971 ft | 273 kts | 0° |
| 2026-04-30 21:46 | 9.32996 | -75.48735 | 5970 ft | 274 kts | 0° |
| 2026-04-30 21:46 | 9.34990 | -75.48777 | 5973 ft | 274 kts | 0° |
| 2026-04-30 21:46 | 9.36914 | -75.48819 | 5973 ft | 274 kts | 0° |
| 2026-04-30 21:47 | 9.38875 | -75.48862 | 5976 ft | 274 kts | 0° |
| 2026-04-30 21:47 | 9.40833 | -75.48904 | 5979 ft | 274 kts | 0° |
| 2026-04-30 21:47 | 9.42796 | -75.48946 | 5977 ft | 274 kts | 0° |
| 2026-04-30 21:47 | 9.44770 | -75.48988 | 5978 ft | 274 kts | 1° |
| 2026-04-30 21:48 | 9.46752 | -75.49030 | 5955 ft | 275 kts | 1° |
| 2026-04-30 21:48 | 9.48707 | -75.49071 | 5824 ft | 274 kts | 0° |
| 2026-04-30 21:48 | 9.50658 | -75.49120 | 5698 ft | 273 kts | 360° |
| 2026-04-30 21:48 | 9.52600 | -75.49188 | 5588 ft | 273 kts | 359° |
| 2026-04-30 21:49 | 9.54554 | -75.49260 | 5470 ft | 272 kts | 360° |
| 2026-04-30 21:49 | 9.56539 | -75.49334 | 5350 ft | 272 kts | 359° |
| 2026-04-30 21:49 | 9.58500 | -75.49408 | 5226 ft | 272 kts | 360° |
| 2026-04-30 21:49 | 9.60393 | -75.49478 | 5108 ft | 271 kts | 359° |
| 2026-04-30 21:50 | 9.62294 | -75.49548 | 4983 ft | 271 kts | 359° |
| 2026-04-30 21:50 | 9.64254 | -75.49620 | 4856 ft | 269 kts | 359° |
| 2026-04-30 21:50 | 9.66230 | -75.49693 | 4734 ft | 269 kts | 359° |
| 2026-04-30 21:50 | 9.68209 | -75.49767 | 4628 ft | 268 kts | 359° |
| 2026-04-30 21:51 | 9.70210 | -75.49843 | 4498 ft | 268 kts | 359° |
| 2026-04-30 21:51 | 9.72219 | -75.49917 | 4361 ft | 267 kts | 359° |
| 2026-04-30 21:51 | 9.74184 | -75.49989 | 4232 ft | 266 kts | 359° |
| 2026-04-30 21:51 | 9.76185 | -75.50063 | 4115 ft | 266 kts | 359° |
| 2026-04-30 21:52 | 9.78120 | -75.50137 | 3994 ft | 265 kts | 359° |
| 2026-04-30 21:52 | 9.80084 | -75.50210 | 3873 ft | 265 kts | 359° |
| 2026-04-30 21:52 | 9.82054 | -75.50283 | 3742 ft | 264 kts | 359° |
| 2026-04-30 21:52 | 9.83996 | -75.50355 | 3609 ft | 264 kts | 358° |
| 2026-04-30 21:53 | 9.85960 | -75.50427 | 3485 ft | 263 kts | 358° |
| 2026-04-30 21:53 | 9.87891 | -75.50500 | 3359 ft | 262 kts | 358° |
| 2026-04-30 21:53 | 9.89837 | -75.50573 | 3235 ft | 261 kts | 358° |
| 2026-04-30 21:53 | 9.91783 | -75.50646 | 3116 ft | 260 kts | 358° |
| 2026-04-30 21:54 | 9.93726 | -75.50719 | 2998 ft | 260 kts | 358° |
| 2026-04-30 21:54 | 9.95668 | -75.50792 | 2976 ft | 260 kts | 358° |
| 2026-04-30 21:54 | 9.97596 | -75.50864 | 2971 ft | 260 kts | 358° |
| 2026-04-30 21:54 | 9.99528 | -75.50937 | 2965 ft | 260 kts | 358° |
| 2026-04-30 21:55 | 10.01439 | -75.51009 | 2967 ft | 260 kts | 358° |
| 2026-04-30 21:55 | 10.03321 | -75.51080 | 2971 ft | 259 kts | 358° |
| 2026-04-30 21:55 | 10.05222 | -75.51151 | 2968 ft | 260 kts | 358° |
| 2026-04-30 21:55 | 10.07136 | -75.51223 | 2968 ft | 260 kts | 358° |
| 2026-04-30 21:56 | 10.09055 | -75.51296 | 2974 ft | 259 kts | 358° |
| 2026-04-30 21:56 | 10.10946 | -75.51452 | 2973 ft | 259 kts | 349° |
| 2026-04-30 21:56 | 10.12746 | -75.51920 | 2977 ft | 260 kts | 345° |
| 2026-04-30 21:56 | 10.14556 | -75.52332 | 2971 ft | 257 kts | 353° |
| 2026-04-30 21:57 | 10.16348 | -75.52428 | 2969 ft | 242 kts | 1° |
| 2026-04-30 21:57 | 10.18057 | -75.52370 | 2964 ft | 228 kts | 2° |
| 2026-04-30 21:57 | 10.19672 | -75.52288 | 2959 ft | 214 kts | 3° |
| 2026-04-30 21:57 | 10.21220 | -75.52215 | 2965 ft | 202 kts | 3° |
| 2026-04-30 21:58 | 10.22684 | -75.52151 | 2972 ft | 201 kts | 2° |
| 2026-04-30 21:58 | 10.24167 | -75.52092 | 2974 ft | 201 kts | 2° |
| 2026-04-30 21:58 | 10.25593 | -75.52037 | 2973 ft | 201 kts | 2° |
| 2026-04-30 21:58 | 10.27007 | -75.51981 | 2922 ft | 201 kts | 2° |
| 2026-04-30 21:59 | 10.28419 | -75.51925 | 2707 ft | 202 kts | 2° |
| 2026-04-30 21:59 | 10.29854 | -75.51871 | 2452 ft | 203 kts | 2° |
| 2026-04-30 21:59 | 10.31281 | -75.51818 | 2200 ft | 206 kts | 3° |
| 2026-04-30 22:00 | 10.34203 | -75.51701 | 1674 ft | 211 kts | 3° |
| 2026-04-30 22:00 | 10.37132 | -75.51578 | 1124 ft | 200 kts | 2° |
| 2026-04-30 22:00 | 10.38468 | -75.51524 | 951 ft | 185 kts | 2° |
| 2026-04-30 22:01 | 10.39767 | -75.51472 | 690 ft | 175 kts | 2° |
| 2026-04-30 22:01 | 10.40984 | -75.51421 | 470 ft | 163 kts | 2° |
| 2026-04-30 22:01 | 10.42090 | -75.51372 | 218 ft | 152 kts | 1° |
| 2026-04-30 22:01 | 10.43107 | -75.51331 | 23 ft | 140 kts | 359° |
| 2026-04-30 22:02 | 10.43922 | -75.51305 | 13 ft | 77 kts | 2° |
| 2026-04-30 22:02 | 10.44202 | -75.51291 | 13 ft | 20 kts | 2° |
| 2026-04-30 22:02 | 10.44315 | -75.51286 | 13 ft | 12 kts | 4° |
| 2026-04-30 22:02 | 10.44395 | -75.51280 | 13 ft | 11 kts | 4° |
| 2026-04-30 22:03 | 10.44482 | -75.51280 | 13 ft | 13 kts | 1° |
| 2026-04-30 22:03 | 10.44564 | -75.51314 | 13 ft | 15 kts | 272° |
| 2026-04-30 22:03 | 10.44563 | -75.51407 | 13 ft | 10 kts | 274° |
| 2026-04-30 22:03 | 10.44551 | -75.51457 | 13 ft | 6 kts | 202° |
| 2026-04-30 22:04 | 10.44510 | -75.51455 | 13 ft | 5 kts | 183° |
| 2026-04-30 22:04 | 10.44496 | -75.51456 | 13 ft | 0 kts | 182° |
| 2026-04-30 22:49 | 10.44527 | -75.51454 | 13 ft | 2 kts | 182° |
| 2026-04-30 22:49 | 10.44564 | -75.51457 | 13 ft | 1 kts | 121° |
| 2026-04-30 22:50 | 10.44565 | -75.51469 | 13 ft | 0 kts | 91° |
| 2026-04-30 22:52 | 10.44558 | -75.51349 | 13 ft | 15 kts | 97° |
| 2026-04-30 22:53 | 10.44364 | -75.51286 | 13 ft | 16 kts | 182° |
| 2026-04-30 22:53 | 10.44114 | -75.51293 | 13 ft | 17 kts | 181° |
| 2026-04-30 22:53 | 10.43986 | -75.51297 | 13 ft | 18 kts | 181° |
| 2026-04-30 22:54 | 10.43717 | -75.51310 | 13 ft | 18 kts | 183° |
| 2026-04-30 22:55 | 10.43297 | -75.51329 | 13 ft | 19 kts | 184° |
| 2026-04-30 22:55 | 10.43074 | -75.51247 | 13 ft | 15 kts | 232° |
| 2026-04-30 22:56 | 10.43161 | -75.51334 | 13 ft | 0 kts | 2° |
| 2026-04-30 22:56 | 10.43482 | -75.51324 | 13 ft | 80 kts | 3° |
| 2026-04-30 22:57 | 10.45421 | -75.51232 | 379 ft | 163 kts | 1° |
| 2026-04-30 22:57 | 10.47587 | -75.51127 | 1948 ft | 151 kts | 3° |
| 2026-04-30 22:58 | 10.50028 | -75.51157 | 2927 ft | 186 kts | 342° |
| 2026-04-30 22:59 | 10.51092 | -75.55097 | 4624 ft | 245 kts | 229° |
| 2026-04-30 22:59 | 10.46678 | -75.58912 | 6574 ft | 290 kts | 219° |